This is the latest recevied weather packets stored in our database for station/object EA6MW-10. If no packets are shown the sender has not sent any weather packets the latest 10 day(s).
| Time | Temp. | Humidity | Pressure | Rain* | Wind** | Luminosity | Snow |
|---|---|---|---|---|---|---|---|
| 1777567022 | 21.67° C | 71% | 1016.3 hPa | - | - | - | - |
| 1777566122 | 22.22° C | 68% | 1016.1 hPa | - | - | - | - |
| 1777565222 | 22.22° C | 67% | 1016.1 hPa | - | - | - | - |
| 1777564322 | 22.78° C | 67% | 1016.1 hPa | - | - | - | - |
| 1777563421 | 22.78° C | 66% | 1016 hPa | - | - | - | - |
| 1777562521 | 23.33° C | 64% | 1016 hPa | - | - | - | - |
| 1777561621 | 25° C | 59% | 1016.1 hPa | - | - | - | - |
| 1777560721 | 26.11° C | 55% | 1016 hPa | - | - | - | - |
| 1777559820 | 27.78° C | 52% | 1016.1 hPa | - | - | - | - |
| 1777558920 | 28.33° C | 51% | 1016.2 hPa | - | - | - | - |
| 1777558020 | 28.33° C | 50% | 1016.5 hPa | - | - | - | - |
| 1777557120 | 27.78° C | 51% | 1016.6 hPa | - | - | - | - |
| 1777556220 | 26.11° C | 54% | 1016.7 hPa | - | - | - | - |
| 1777555319 | 26.11° C | 56% | 1016.7 hPa | - | - | - | - |
| 1777554419 | 25° C | 57% | 1016.8 hPa | - | - | - | - |
| 1777553519 | 22.78° C | 63% | 1016.9 hPa | - | - | - | - |
| 1777552619 | 22.78° C | 63% | 1016.9 hPa | - | - | - | - |
| 1777551719 | 23.89° C | 61% | 1016.9 hPa | - | - | - | - |
| 1777550819 | 23.89° C | 61% | 1016.9 hPa | - | - | - | - |
| 1777549918 | 25° C | 58% | 1017 hPa | - | - | - | - |
| 1777549018 | 24.44° C | 59% | 1016.8 hPa | - | - | - | - |
| 1777548118 | 26.11° C | 55% | 1016.8 hPa | - | - | - | - |
| 1777547218 | 30° C | 47% | 1016.8 hPa | - | - | - | - |
| 1777546318 | 30.56° C | 45% | 1016.8 hPa | - | - | - | - |
| 1777545418 | 28.89° C | 48% | 1016.9 hPa | - | - | - | - |
* Rain since midnight (hover to see other rain measurements)
** Current wind speed in m/s (hover to see current wind gust speed)